createdAt,value
2017-06-09T00:01:42.967Z,5.63
2017-06-09T00:04:09.465Z,4.97
2017-06-09T00:06:36.003Z,3.10
2017-06-09T00:09:03.302Z,4.00
2017-06-09T00:11:31.845Z,4.93
2017-06-09T00:14:00.174Z,2.90
2017-06-09T00:16:28.398Z,4.47
2017-06-09T00:18:55.291Z,5.30
2017-06-09T00:21:22.267Z,3.53
2017-06-09T00:23:49.214Z,3.17
2017-06-09T00:26:15.730Z,3.00
2017-06-09T00:28:43.959Z,4.03
2017-06-09T00:31:10.470Z,3.50
2017-06-09T00:33:38.086Z,3.40
2017-06-09T00:36:04.971Z,3.23
2017-06-09T00:38:31.501Z,5.60
2017-06-09T00:40:58.250Z,4.20
2017-06-09T00:43:25.477Z,4.60
2017-06-09T00:45:53.906Z,3.43
2017-06-09T00:48:20.410Z,3.60
2017-06-09T00:50:55.593Z,3.30
2017-06-09T00:53:22.465Z,3.27
2017-06-09T00:55:50.762Z,4.77
2017-06-09T00:58:19.029Z,3.17
2017-06-09T01:00:47.161Z,3.40
2017-06-09T01:03:13.923Z,3.20
2017-06-09T01:05:40.449Z,3.20
2017-06-09T01:08:08.167Z,4.20
2017-06-09T01:10:36.441Z,4.00
2017-06-09T01:13:04.700Z,4.10
2017-06-09T01:15:31.181Z,4.07
2017-06-09T01:17:57.716Z,5.10
2017-06-09T01:20:24.622Z,3.10
2017-06-09T01:22:51.139Z,3.37
2017-06-09T01:25:17.669Z,2.77
2017-06-09T01:27:44.161Z,2.90
2017-06-09T01:30:12.361Z,3.63
2017-06-09T01:32:39.255Z,4.93
2017-06-09T01:35:05.813Z,6.40
2017-06-09T01:37:32.714Z,3.77
2017-06-09T01:39:59.250Z,2.67
2017-06-09T01:42:26.090Z,2.43
2017-06-09T01:44:52.638Z,2.43
2017-06-09T01:47:20.924Z,4.77
2017-06-09T01:49:48.923Z,8.50
2017-06-09T01:52:16.182Z,5.50
2017-06-09T01:54:44.278Z,2.87
2017-06-09T01:57:10.835Z,6.70
2017-06-09T01:59:38.070Z,2.33
2017-06-09T02:02:06.321Z,3.57
2017-06-09T02:04:32.824Z,2.10
2017-06-09T02:07:00.112Z,3.63
2017-06-09T02:09:26.668Z,2.67
2017-06-09T02:11:53.617Z,2.63
2017-06-09T02:14:21.589Z,2.00
2017-06-09T02:16:49.836Z,4.23
2017-06-09T02:19:17.855Z,2.97
2017-06-09T02:21:45.469Z,2.70
2017-06-09T02:24:12.332Z,4.60
2017-06-09T02:26:39.155Z,2.43
2017-06-09T02:29:06.334Z,3.87
2017-06-09T02:31:32.872Z,2.60
2017-06-09T02:34:01.126Z,3.07
2017-06-09T02:36:27.634Z,5.57
2017-06-09T02:38:54.186Z,3.63
2017-06-09T02:41:21.342Z,3.27
2017-06-09T02:43:49.599Z,2.60
2017-06-09T02:46:16.466Z,4.80
2017-06-09T02:48:44.799Z,2.37
2017-06-09T02:51:12.817Z,2.30
2017-06-09T02:53:39.309Z,3.10
2017-06-09T02:56:07.579Z,2.80
2017-06-09T02:58:34.089Z,4.97
2017-06-09T03:01:01.522Z,2.40
2017-06-09T03:03:29.255Z,4.40
2017-06-09T03:05:57.719Z,2.50
2017-06-09T03:08:24.337Z,3.43
2017-06-09T03:10:51.271Z,2.80
2017-06-09T03:13:18.174Z,2.63
2017-06-09T03:15:44.674Z,3.00
2017-06-09T03:18:11.337Z,2.20
2017-06-09T03:20:39.805Z,2.67
2017-06-09T03:23:08.113Z,3.37
2017-06-09T03:25:35.087Z,3.20
2017-06-09T03:28:02.090Z,3.70
2017-06-09T03:30:29.306Z,3.90
2017-06-09T03:33:01.922Z,2.37
2017-06-09T03:35:30.190Z,2.60
2017-06-09T03:37:56.833Z,2.90
2017-06-09T03:40:24.107Z,3.27
2017-06-09T03:42:50.622Z,3.23
2017-06-09T03:45:17.143Z,2.97
2017-06-09T03:47:44.033Z,3.10
2017-06-09T03:50:12.334Z,3.10
2017-06-09T03:52:39.602Z,2.10
2017-06-09T03:55:06.290Z,4.63
2017-06-09T03:57:33.141Z,3.20
2017-06-09T04:00:00.594Z,3.13
2017-06-09T04:02:27.630Z,2.23
2017-06-09T04:04:54.889Z,2.80
2017-06-09T04:07:22.888Z,2.40
2017-06-09T04:09:49.926Z,3.87
2017-06-09T04:12:17.240Z,4.10
2017-06-09T04:14:45.330Z,4.90
2017-06-09T04:17:12.093Z,2.53
2017-06-09T04:19:38.490Z,3.60
2017-06-09T04:22:06.585Z,2.80
2017-06-09T04:24:33.962Z,2.50
2017-06-09T04:27:00.251Z,3.37
2017-06-09T04:29:26.925Z,2.37
2017-06-09T04:32:02.007Z,3.30
2017-06-09T04:34:30.102Z,2.97
2017-06-09T04:36:58.121Z,2.53
2017-06-09T04:39:24.406Z,6.20
2017-06-09T04:41:52.487Z,8.80
2017-06-09T04:44:19.290Z,3.80
2017-06-09T04:46:45.975Z,3.00
2017-06-09T04:49:12.317Z,3.27
2017-06-09T04:51:40.306Z,2.77
2017-06-09T04:54:06.596Z,4.23
2017-06-09T04:56:33.608Z,3.83
2017-06-09T04:59:01.027Z,2.90
2017-06-09T05:01:28.413Z,1.90
2017-06-09T05:03:55.506Z,3.97
2017-06-09T05:06:22.949Z,4.07
2017-06-09T05:08:51.111Z,3.60
2017-06-09T05:11:17.485Z,3.03
2017-06-09T05:13:44.172Z,2.87
2017-06-09T05:16:10.859Z,2.80
2017-06-09T05:18:38.026Z,2.70
2017-06-09T05:21:10.369Z,2.73
2017-06-09T05:23:44.420Z,4.73
2017-06-09T05:26:12.425Z,3.13
2017-06-09T05:28:40.500Z,4.43
2017-06-09T05:31:08.536Z,3.40
2017-06-09T05:33:35.250Z,2.93
2017-06-09T05:36:03.301Z,3.60
2017-06-09T05:38:30.735Z,3.20
2017-06-09T05:40:57.378Z,3.47
2017-06-09T05:43:23.670Z,4.13
2017-06-09T05:45:50.005Z,4.20
2017-06-09T05:48:16.411Z,5.03
2017-06-09T05:50:44.441Z,3.77
2017-06-09T05:53:12.210Z,3.93
2017-06-09T05:55:38.745Z,3.43
2017-06-09T05:58:05.753Z,4.77
2017-06-09T06:00:32.041Z,2.70
2017-06-09T06:02:59.472Z,2.40
2017-06-09T06:05:26.241Z,9.07
2017-06-09T06:07:54.257Z,4.30
2017-06-09T06:10:20.944Z,3.47
2017-06-09T06:12:47.241Z,3.27
2017-06-09T06:15:13.554Z,2.07
2017-06-09T06:17:40.631Z,4.53
2017-06-09T06:20:08.649Z,7.43
2017-06-09T06:22:35.366Z,3.00
2017-06-09T06:25:03.352Z,2.20
2017-06-09T06:27:30.443Z,6.90
2017-06-09T06:29:57.208Z,2.67
2017-06-09T06:32:24.226Z,5.90
2017-06-09T06:34:50.874Z,4.20
2017-06-09T06:37:18.314Z,4.80
2017-06-09T06:39:46.321Z,5.80
2017-06-09T06:42:14.318Z,8.90
2017-06-09T06:44:41.338Z,4.60
2017-06-09T06:47:07.693Z,3.47
2017-06-09T06:49:35.711Z,3.10
2017-06-09T06:52:02.370Z,4.20
2017-06-09T06:54:28.709Z,4.03
2017-06-09T06:56:56.705Z,4.63
2017-06-09T06:59:23.028Z,4.03
2017-06-09T07:01:50.474Z,4.60
2017-06-09T07:04:17.222Z,5.70
2017-06-09T07:06:43.496Z,4.27
2017-06-09T07:09:09.813Z,4.53
2017-06-09T07:11:36.095Z,5.10
2017-06-09T07:14:04.116Z,3.87
2017-06-09T07:16:31.907Z,3.90
2017-06-09T07:18:58.582Z,3.87
2017-06-09T07:21:24.970Z,4.00
2017-06-09T07:23:51.249Z,4.47
2017-06-09T07:26:17.582Z,3.10
2017-06-09T07:28:44.249Z,3.10
2017-06-09T07:31:12.270Z,4.70
2017-06-09T07:33:38.934Z,2.73
2017-06-09T07:36:05.218Z,5.10
2017-06-09T07:38:32.622Z,3.07
2017-06-09T07:40:59.111Z,6.00
2017-06-09T07:43:25.778Z,3.77
2017-06-09T07:45:52.084Z,2.10
2017-06-09T07:48:20.130Z,2.10
2017-06-09T07:50:48.165Z,3.07
2017-06-09T07:53:14.508Z,3.63
2017-06-09T07:55:40.825Z,3.33
2017-06-09T07:58:07.134Z,2.60
2017-06-09T08:00:34.164Z,3.03
2017-06-09T08:03:00.810Z,4.97
2017-06-09T08:05:28.821Z,4.80
2017-06-09T08:07:55.464Z,5.00
2017-06-09T08:10:21.781Z,5.33
2017-06-09T08:12:49.801Z,7.60
2017-06-09T08:15:16.476Z,5.27
2017-06-09T08:17:47.626Z,4.70
2017-06-09T08:20:15.670Z,3.57
2017-06-09T08:22:43.085Z,5.03
2017-06-09T08:25:10.523Z,3.93
2017-06-09T08:27:37.999Z,3.37
2017-06-09T08:30:08.919Z,3.67
2017-06-09T08:32:35.194Z,3.00
2017-06-09T08:35:03.196Z,5.17
2017-06-09T08:37:30.242Z,4.90
2017-06-09T08:39:56.529Z,3.70
2017-06-09T08:42:23.953Z,4.07
2017-06-09T08:44:50.986Z,3.63
2017-06-09T08:47:17.317Z,3.00
2017-06-09T08:49:44.393Z,3.50
2017-06-09T08:52:12.377Z,3.53
2017-06-09T08:54:38.662Z,3.90
2017-06-09T08:57:08.693Z,3.37
2017-06-09T08:59:35.014Z,4.50
2017-06-09T09:02:01.697Z,5.23
2017-06-09T09:04:28.353Z,4.23
2017-06-09T09:06:56.373Z,3.90
2017-06-09T09:09:23.034Z,8.17
2017-06-09T09:11:49.341Z,4.23
2017-06-09T09:14:16.866Z,3.43
2017-06-09T09:16:43.173Z,2.20
2017-06-09T09:19:10.226Z,2.50
2017-06-09T09:21:36.862Z,2.30
2017-06-09T09:24:04.853Z,2.80
2017-06-09T09:26:31.945Z,2.93
2017-06-09T09:29:01.981Z,2.77
2017-06-09T09:31:28.634Z,2.73
2017-06-09T09:33:55.288Z,2.20
2017-06-09T09:36:21.581Z,2.50
2017-06-09T09:38:49.566Z,5.87
2017-06-09T09:41:16.941Z,4.57
2017-06-09T09:43:43.599Z,3.53
2017-06-09T09:46:09.876Z,4.30
2017-06-09T09:48:37.706Z,2.73
2017-06-09T09:51:03.988Z,4.13
2017-06-09T09:53:30.257Z,3.90
2017-06-09T09:55:58.266Z,7.23
2017-06-09T09:58:26.073Z,3.10
2017-06-09T10:00:54.069Z,3.80
2017-06-09T10:03:20.768Z,3.57
2017-06-09T10:05:48.790Z,5.33
2017-06-09T10:08:16.585Z,3.13
2017-06-09T10:10:44.576Z,2.80
2017-06-09T10:13:11.290Z,3.37
2017-06-09T10:15:39.330Z,3.53
2017-06-09T10:18:06.033Z,3.30
2017-06-09T10:20:32.337Z,3.13
2017-06-09T10:23:00.169Z,3.70
2017-06-09T10:25:27.238Z,5.27
2017-06-09T10:27:55.236Z,5.50
2017-06-09T10:30:21.522Z,3.63
2017-06-09T10:32:47.801Z,7.50
2017-06-09T10:35:14.082Z,8.43
2017-06-09T10:37:40.366Z,6.13
2017-06-09T10:40:06.986Z,4.17
2017-06-09T10:42:33.637Z,13.93
2017-06-09T10:45:01.634Z,5.57
2017-06-09T10:47:28.016Z,5.53
2017-06-09T10:49:54.319Z,7.20
2017-06-09T10:52:20.631Z,3.97
2017-06-09T10:54:47.278Z,5.10
2017-06-09T10:57:13.566Z,5.50
2017-06-09T10:59:39.901Z,3.90
2017-06-09T11:02:06.205Z,2.33
2017-06-09T11:04:34.293Z,3.57
2017-06-09T11:07:01.307Z,4.40
2017-06-09T11:09:28.362Z,2.40
2017-06-09T11:11:55.132Z,3.00
2017-06-09T11:14:22.276Z,2.97
2017-06-09T11:16:48.606Z,3.30
2017-06-09T11:19:16.631Z,1.67
2017-06-09T11:21:44.454Z,2.73
2017-06-09T11:24:11.247Z,4.30
2017-06-09T11:26:37.670Z,3.00
2017-06-09T11:29:04.778Z,4.87
2017-06-09T11:31:31.093Z,4.03
2017-06-09T11:33:57.825Z,2.93
2017-06-09T11:36:25.953Z,4.63
2017-06-09T11:38:53.806Z,4.73
2017-06-09T11:41:21.589Z,3.70
2017-06-09T11:43:49.833Z,3.33
2017-06-09T11:46:17.501Z,3.33
2017-06-09T11:48:44.453Z,2.90
2017-06-09T11:51:12.691Z,2.90
2017-06-09T11:53:39.363Z,3.23
2017-06-09T11:56:05.788Z,3.60
2017-06-09T11:58:33.043Z,3.10
2017-06-09T12:00:59.995Z,3.20
2017-06-09T12:03:26.542Z,3.70
2017-06-09T12:05:53.121Z,5.20
2017-06-09T12:08:21.385Z,4.50
2017-06-09T12:10:47.950Z,5.43
2017-06-09T12:13:14.846Z,4.70
2017-06-09T12:15:41.483Z,4.97
2017-06-09T12:18:08.071Z,4.00
2017-06-09T12:20:35.381Z,4.17
2017-06-09T12:23:02.277Z,4.00
2017-06-09T12:25:30.515Z,4.37
2017-06-09T12:27:56.958Z,3.73
2017-06-09T12:30:23.839Z,4.07
2017-06-09T12:32:52.098Z,4.70
2017-06-09T12:35:18.724Z,4.53
2017-06-09T12:37:46.372Z,4.90
2017-06-09T12:40:16.785Z,4.10
2017-06-09T12:42:43.280Z,4.37
2017-06-09T12:45:10.806Z,5.90
2017-06-09T12:47:39.089Z,5.30
2017-06-09T12:50:06.974Z,6.57
2017-06-09T12:52:38.304Z,6.10
2017-06-09T12:55:06.041Z,3.97
2017-06-09T12:57:33.313Z,4.70
2017-06-09T13:00:00.207Z,4.20
2017-06-09T13:02:27.110Z,4.77
2017-06-09T13:04:53.531Z,4.23
2017-06-09T13:07:21.791Z,4.23
2017-06-09T13:09:50.086Z,3.27
2017-06-09T13:12:17.353Z,5.30
2017-06-09T13:14:43.930Z,4.53
2017-06-09T13:17:13.353Z,4.97
2017-06-09T13:19:40.023Z,4.83
2017-06-09T13:22:06.660Z,4.50
2017-06-09T13:24:33.196Z,5.53
2017-06-09T13:26:59.799Z,5.37
2017-06-09T13:29:26.711Z,6.20
2017-06-09T13:31:53.229Z,5.70
2017-06-09T13:34:20.490Z,4.63
2017-06-09T13:36:48.132Z,9.47
2017-06-09T13:39:14.608Z,6.23
2017-06-09T13:41:42.811Z,5.23
2017-06-09T13:44:10.071Z,5.60
2017-06-09T13:46:36.564Z,6.60
2017-06-09T13:49:03.822Z,6.87
2017-06-09T13:51:30.366Z,5.70
2017-06-09T13:53:56.886Z,7.03
2017-06-09T13:56:25.161Z,4.93
2017-06-09T13:58:51.707Z,5.03
2017-06-09T14:01:18.861Z,5.17
2017-06-09T14:03:45.809Z,5.23
2017-06-09T14:06:12.358Z,5.70
2017-06-09T14:08:38.881Z,7.00
2017-06-09T14:11:05.671Z,6.90
2017-06-09T14:13:33.930Z,7.00
2017-06-09T14:16:06.409Z,6.10
2017-06-09T14:18:33.799Z,7.77
2017-06-09T14:21:01.113Z,8.33
2017-06-09T14:23:27.619Z,6.80
2017-06-09T14:25:54.220Z,6.97
2017-06-09T14:28:21.242Z,7.23
2017-06-09T14:30:47.790Z,6.77
2017-06-09T14:33:18.447Z,6.50
2017-06-09T14:35:45.397Z,6.50
2017-06-09T14:38:12.654Z,6.37
2017-06-09T14:40:40.001Z,7.23
2017-06-09T14:43:08.302Z,7.40
2017-06-09T14:45:36.562Z,7.57
2017-06-09T14:48:03.841Z,8.43
2017-06-09T14:50:30.737Z,9.33
2017-06-09T14:52:57.965Z,7.93
2017-06-09T14:55:26.393Z,8.67
2017-06-09T14:57:54.530Z,9.13
2017-06-09T15:00:21.114Z,8.17
2017-06-09T15:02:47.901Z,7.77
2017-06-09T15:05:15.174Z,8.20
2017-06-09T15:07:41.666Z,8.30
2017-06-09T15:10:08.262Z,7.17
2017-06-09T15:12:34.789Z,8.77
2017-06-09T15:15:03.074Z,10.03
2017-06-09T15:17:31.378Z,9.23
2017-06-09T15:19:58.668Z,8.87
2017-06-09T15:22:25.871Z,9.47
2017-06-09T15:24:52.349Z,9.90
2017-06-09T15:27:19.719Z,8.73
2017-06-09T15:29:47.069Z,6.60
2017-06-09T15:32:15.282Z,6.33
2017-06-09T15:34:41.776Z,7.13
2017-06-09T15:37:08.297Z,8.40
2017-06-09T15:39:35.583Z,3.80
2017-06-09T15:42:02.464Z,6.13
2017-06-09T15:44:28.990Z,5.03
2017-06-09T15:46:57.282Z,3.40
2017-06-09T15:49:25.575Z,3.77
2017-06-09T15:51:52.139Z,3.30
2017-06-09T15:54:18.682Z,2.80
2017-06-09T15:56:45.907Z,6.13
2017-06-09T15:59:13.841Z,3.97
2017-06-09T16:01:40.364Z,2.53
2017-06-09T16:04:06.913Z,2.93
2017-06-09T16:06:34.185Z,4.13
2017-06-09T16:09:02.236Z,2.90
2017-06-09T16:11:28.739Z,6.23
2017-06-09T16:13:57.017Z,7.90
2017-06-09T16:16:25.257Z,4.70
2017-06-09T16:18:53.508Z,4.17
2017-06-09T16:21:20.765Z,3.53
2017-06-09T16:23:47.350Z,6.97
2017-06-09T16:26:13.907Z,4.20
2017-06-09T16:28:40.775Z,4.40
2017-06-09T16:31:08.374Z,2.97
2017-06-09T16:33:35.285Z,4.93
2017-06-09T16:36:02.217Z,5.17
2017-06-09T16:38:29.647Z,6.00
2017-06-09T16:40:57.906Z,4.60
2017-06-09T16:43:25.559Z,9.13
2017-06-09T16:45:51.954Z,3.97
2017-06-09T16:48:18.534Z,2.53
2017-06-09T16:50:46.822Z,2.07
2017-06-09T16:53:14.479Z,14.53
2017-06-09T16:55:41.463Z,8.13
2017-06-09T16:58:08.794Z,6.83
2017-06-09T17:00:36.142Z,3.60
2017-06-09T17:03:04.468Z,4.73
2017-06-09T17:05:32.729Z,3.53
2017-06-09T17:08:00.341Z,7.03
2017-06-09T17:10:27.578Z,3.80
2017-06-09T17:12:55.177Z,5.53
2017-06-09T17:15:23.541Z,4.13
2017-06-09T17:17:51.823Z,4.13
2017-06-09T17:20:20.164Z,4.50
2017-06-09T17:22:48.213Z,5.63
2017-06-09T17:25:17.037Z,6.10
2017-06-09T17:27:45.299Z,2.90
2017-06-09T17:30:11.866Z,3.43
2017-06-09T17:32:38.875Z,5.57
2017-06-09T17:35:06.523Z,4.20
2017-06-09T17:37:33.170Z,4.60
2017-06-09T17:40:01.476Z,4.40
2017-06-09T17:42:29.134Z,4.80
2017-06-09T17:44:56.797Z,5.37
2017-06-09T17:47:25.007Z,4.67
2017-06-09T17:49:53.045Z,4.23
2017-06-09T17:52:20.491Z,4.40
2017-06-09T17:54:48.678Z,7.37
2017-06-09T17:57:15.381Z,7.20
2017-06-09T17:59:42.475Z,5.00
2017-06-09T18:02:08.814Z,2.67
2017-06-09T18:04:35.130Z,7.63
2017-06-09T18:07:01.560Z,5.43
2017-06-09T18:09:27.942Z,4.63
2017-06-09T18:11:54.937Z,5.53
2017-06-09T18:14:22.965Z,6.03
2017-06-09T18:16:49.269Z,4.10
2017-06-09T18:19:15.579Z,3.90
2017-06-09T18:21:42.245Z,5.73
2017-06-09T18:24:10.278Z,6.57
2017-06-09T18:26:38.323Z,4.70
2017-06-09T18:29:04.990Z,3.23
2017-06-09T18:31:31.629Z,6.40
2017-06-09T18:33:58.705Z,2.53
2017-06-09T18:36:25.957Z,5.10
2017-06-09T18:38:53.986Z,9.77
2017-06-09T18:41:21.179Z,5.27
2017-06-09T18:43:47.849Z,4.03
2017-06-09T18:46:14.562Z,7.73
2017-06-09T18:48:40.886Z,3.70
2017-06-09T18:51:07.598Z,4.00
2017-06-09T18:53:33.934Z,5.47
2017-06-09T18:56:02.913Z,9.40
2017-06-09T18:58:30.982Z,4.57
2017-06-09T19:00:58.810Z,4.17
2017-06-09T19:03:25.509Z,4.07
2017-06-09T19:05:53.517Z,8.10
2017-06-09T19:08:20.921Z,6.13
2017-06-09T19:10:49.306Z,7.50
2017-06-09T19:13:18.398Z,4.13
2017-06-09T19:15:46.351Z,4.40
2017-06-09T19:18:14.287Z,8.90
2017-06-09T19:20:40.838Z,8.03
2017-06-09T19:23:07.608Z,6.93
2017-06-09T19:25:35.975Z,4.57
2017-06-09T19:28:03.717Z,6.40
2017-06-09T19:30:32.401Z,10.03
2017-06-09T19:33:00.645Z,5.80
2017-06-09T19:35:28.674Z,6.67
2017-06-09T19:37:55.024Z,5.43
2017-06-09T19:40:23.074Z,9.53
2017-06-09T19:42:51.441Z,3.43
2017-06-09T19:45:19.175Z,4.80
2017-06-09T19:47:47.360Z,2.90
2017-06-09T19:50:15.171Z,7.13
2017-06-09T19:52:43.206Z,4.30
2017-06-09T19:55:11.255Z,8.23
2017-06-09T19:57:38.115Z,4.50
2017-06-09T20:00:06.308Z,5.63
2017-06-09T20:02:34.439Z,9.73
2017-06-09T20:05:02.459Z,4.97
2017-06-09T20:07:29.517Z,7.03
2017-06-09T20:09:57.162Z,6.70
2017-06-09T20:12:25.182Z,6.57
2017-06-09T20:14:53.238Z,8.60
2017-06-09T20:17:20.866Z,9.20
2017-06-09T20:19:47.525Z,17.33
2017-06-09T20:22:15.537Z,13.80
2017-06-09T20:24:43.760Z,14.73
2017-06-09T20:27:12.422Z,14.60
2017-06-09T20:29:39.575Z,8.20
2017-06-09T20:32:07.885Z,13.60
2017-06-09T20:34:34.768Z,12.67
2017-06-09T20:37:02.648Z,11.60
2017-06-09T20:39:29.887Z,8.97
2017-06-09T20:41:57.254Z,10.20
2017-06-09T20:44:25.317Z,6.23
2017-06-09T20:46:53.514Z,10.60
2017-06-09T20:49:20.668Z,21.27
2017-06-09T20:51:47.885Z,25.17
2017-06-09T20:54:16.370Z,24.27
2017-06-09T20:56:44.755Z,14.90
2017-06-09T20:59:13.718Z,16.40
2017-06-09T21:01:41.923Z,34.13
2017-06-09T21:04:09.493Z,40.57
2017-06-09T21:06:37.016Z,13.90
2017-06-09T21:09:05.077Z,7.53
2017-06-09T21:11:33.171Z,19.53
2017-06-09T21:14:00.850Z,17.33
2017-06-09T21:16:27.302Z,19.27
2017-06-09T21:18:55.474Z,16.83
2017-06-09T21:21:23.579Z,11.83
2017-06-09T21:23:51.790Z,11.60
2017-06-09T21:26:21.418Z,9.83
2017-06-09T21:28:49.728Z,14.43
2017-06-09T21:31:16.123Z,9.37
2017-06-09T21:33:42.857Z,11.27
2017-06-09T21:36:10.057Z,9.53
2017-06-09T21:38:36.338Z,9.10
2017-06-09T21:41:05.133Z,10.47
2017-06-09T21:43:31.679Z,9.50
2017-06-09T21:45:58.141Z,8.10
2017-06-09T21:48:26.302Z,14.53
2017-06-09T21:50:55.187Z,12.87
2017-06-09T21:53:23.447Z,8.37
2017-06-09T21:55:51.709Z,11.20
2017-06-09T21:58:20.253Z,8.57
2017-06-09T22:00:48.510Z,8.80
2017-06-09T22:03:16.795Z,8.03
2017-06-09T22:05:45.447Z,10.60
2017-06-09T22:08:13.462Z,11.77
2017-06-09T22:10:39.865Z,7.07
2017-06-09T22:13:07.694Z,10.37
2017-06-09T22:15:36.101Z,8.60
2017-06-09T22:18:03.210Z,10.03
2017-06-09T22:20:31.472Z,9.07
2017-06-09T22:22:59.714Z,8.03
2017-06-09T22:25:27.746Z,9.37
2017-06-09T22:27:54.118Z,7.70
2017-06-09T22:30:22.165Z,10.30
2017-06-09T22:32:50.166Z,12.00
2017-06-09T22:35:17.953Z,10.20
2017-06-09T22:37:45.439Z,6.33
2017-06-09T22:40:12.201Z,7.77
2017-06-09T22:42:39.773Z,9.57
2017-06-09T22:45:07.315Z,12.33
2017-06-09T22:47:34.056Z,9.00
2017-06-09T22:50:02.260Z,9.00
2017-06-09T22:52:30.483Z,9.40
2017-06-09T22:54:58.440Z,9.70
2017-06-09T22:57:27.218Z,10.10
2017-06-09T22:59:55.450Z,11.63
2017-06-09T23:02:22.854Z,8.23
2017-06-09T23:04:53.525Z,8.37
2017-06-09T23:07:20.484Z,11.37
2017-06-09T23:09:47.310Z,7.03
2017-06-09T23:12:13.634Z,11.80
2017-06-09T23:14:39.986Z,13.00
2017-06-09T23:17:07.023Z,10.97
2017-06-09T23:19:35.021Z,11.10
2017-06-09T23:22:03.070Z,11.20
2017-06-09T23:24:46.065Z,8.57
2017-06-09T23:27:13.850Z,9.43
2017-06-09T23:29:40.431Z,12.00
2017-06-09T23:32:06.809Z,9.83
2017-06-09T23:34:33.518Z,9.60
2017-06-09T23:37:01.554Z,10.77
2017-06-09T23:39:27.842Z,9.50
2017-06-09T23:41:56.311Z,12.17
2017-06-09T23:44:24.401Z,9.47
2017-06-09T23:46:51.430Z,11.47
2017-06-09T23:49:17.729Z,10.23
2017-06-09T23:51:44.997Z,10.30
2017-06-09T23:54:12.993Z,11.23
2017-06-09T23:56:46.593Z,8.90
2017-06-09T23:59:13.283Z,9.00
